createdAt,value
2023-01-26T00:01:23.001Z,19.30
2023-01-26T00:03:52.750Z,19.87
2023-01-26T00:06:22.225Z,19.93
2023-01-26T00:08:51.791Z,20.70
2023-01-26T00:11:24.363Z,23.17
2023-01-26T00:13:52.574Z,22.27
2023-01-26T00:16:21.366Z,20.47
2023-01-26T00:18:49.252Z,21.83
2023-01-26T00:21:19.350Z,22.50
2023-01-26T00:23:48.151Z,23.67
2023-01-26T00:26:18.210Z,24.33
2023-01-26T00:28:47.347Z,24.23
2023-01-26T00:31:17.848Z,23.37
2023-01-26T00:33:46.077Z,23.20
2023-01-26T00:36:14.541Z,20.60
2023-01-26T00:38:43.001Z,23.30
2023-01-26T00:41:31.092Z,25.03
2023-01-26T00:44:00.605Z,26.37
2023-01-26T00:46:31.289Z,27.60
2023-01-26T00:49:00.879Z,28.17
2023-01-26T00:51:28.907Z,27.83
2023-01-26T00:53:56.715Z,29.63
2023-01-26T00:56:27.955Z,29.13
2023-01-26T00:58:55.824Z,28.23
2023-01-26T01:01:25.037Z,29.53
2023-01-26T01:03:53.072Z,28.30
2023-01-26T01:06:22.539Z,29.10
2023-01-26T01:08:50.352Z,28.97
2023-01-26T01:11:18.089Z,29.27
2023-01-26T01:13:45.879Z,29.10
2023-01-26T01:16:16.499Z,28.07
2023-01-26T01:18:45.850Z,29.57
2023-01-26T01:21:16.010Z,27.60
2023-01-26T01:23:44.902Z,27.67
2023-01-26T01:26:13.668Z,26.00
2023-01-26T01:28:42.770Z,24.70
2023-01-26T01:31:12.832Z,24.03
2023-01-26T01:33:41.199Z,23.70
2023-01-26T01:36:12.757Z,23.00
2023-01-26T01:38:40.588Z,22.43
2023-01-26T01:41:08.403Z,20.90
2023-01-26T01:43:36.764Z,22.40
2023-01-26T01:46:26.058Z,21.30
2023-01-26T01:48:58.172Z,21.10
2023-01-26T01:51:34.325Z,21.17
2023-01-26T01:54:05.922Z,21.07
2023-01-26T01:56:36.641Z,20.87
2023-01-26T01:59:08.312Z,22.23
2023-01-26T02:01:36.069Z,23.60
2023-01-26T02:04:07.185Z,23.00
2023-01-26T02:06:39.900Z,22.87
2023-01-26T02:09:08.249Z,20.87
2023-01-26T02:11:40.173Z,21.00
2023-01-26T02:14:10.683Z,22.10
2023-01-26T02:16:39.947Z,20.83
2023-01-26T02:19:13.096Z,19.97
2023-01-26T02:21:45.434Z,19.80
2023-01-26T02:24:19.677Z,18.90
2023-01-26T02:26:49.236Z,19.03
2023-01-26T02:29:17.001Z,17.77
2023-01-26T02:31:45.446Z,18.73
2023-01-26T02:34:13.218Z,18.73
2023-01-26T02:36:41.105Z,19.23
2023-01-26T02:39:24.850Z,17.87
2023-01-26T02:42:12.528Z,19.43
2023-01-26T02:44:42.637Z,19.30
2023-01-26T02:47:15.059Z,20.27
2023-01-26T02:49:47.575Z,20.10
2023-01-26T02:52:15.758Z,20.60
2023-01-26T02:55:01.141Z,21.83
2023-01-26T02:57:30.383Z,20.87
2023-01-26T02:59:58.097Z,21.07
2023-01-26T03:02:25.823Z,19.70
2023-01-26T03:04:53.509Z,20.57
2023-01-26T03:07:21.297Z,19.10
2023-01-26T03:09:49.022Z,18.30
2023-01-26T03:12:16.722Z,16.90
2023-01-26T03:14:45.789Z,17.33
2023-01-26T03:17:13.457Z,17.57
2023-01-26T03:19:58.662Z,20.30
2023-01-26T03:22:44.307Z,19.17
2023-01-26T03:25:29.945Z,18.37
2023-01-26T03:27:57.669Z,19.70
2023-01-26T03:30:26.758Z,18.93
2023-01-26T03:32:54.496Z,19.17
2023-01-26T03:35:22.736Z,17.77
2023-01-26T03:37:54.671Z,19.10
2023-01-26T03:40:40.366Z,17.80
2023-01-26T03:43:26.346Z,16.83
2023-01-26T03:46:12.952Z,17.83
2023-01-26T03:48:58.509Z,17.67
2023-01-26T03:51:43.883Z,16.33
2023-01-26T03:54:29.520Z,17.37
2023-01-26T03:56:57.248Z,17.90
2023-01-26T03:59:38.173Z,17.40
2023-01-26T04:02:25.415Z,15.90
2023-01-26T04:05:11.742Z,16.53
2023-01-26T04:07:58.194Z,15.77
2023-01-26T04:10:26.828Z,16.23
2023-01-26T04:13:12.387Z,17.40
2023-01-26T04:15:57.762Z,16.20
2023-01-26T04:18:44.724Z,16.33
2023-01-26T04:21:27.762Z,18.30
2023-01-26T04:23:57.346Z,17.90
2023-01-26T04:26:25.767Z,17.77
2023-01-26T04:28:53.553Z,16.57
2023-01-26T04:31:21.251Z,15.30
2023-01-26T04:33:50.325Z,13.70
2023-01-26T04:36:18.033Z,12.83
2023-01-26T04:38:45.766Z,12.77
2023-01-26T04:41:13.462Z,14.13
2023-01-26T04:43:41.180Z,12.77
2023-01-26T04:46:09.716Z,11.87
2023-01-26T04:48:37.796Z,11.93
2023-01-26T04:51:08.803Z,11.60
2023-01-26T04:53:36.635Z,11.60
2023-01-26T04:56:04.659Z,10.33
2023-01-26T04:58:33.669Z,11.63
2023-01-26T05:01:01.397Z,12.07
2023-01-26T05:03:29.189Z,11.73
2023-01-26T05:05:56.898Z,12.23
2023-01-26T05:08:25.974Z,11.53
2023-01-26T05:10:53.684Z,11.53
2023-01-26T05:13:21.415Z,12.00
2023-01-26T05:15:49.177Z,12.47
2023-01-26T05:18:16.882Z,12.20
2023-01-26T05:20:44.625Z,12.93
2023-01-26T05:23:12.372Z,12.60
2023-01-26T05:25:41.555Z,10.87
2023-01-26T05:28:09.277Z,11.57
2023-01-26T05:30:37.117Z,10.70
2023-01-26T05:33:05.946Z,11.30
2023-01-26T05:35:33.811Z,12.00
2023-01-26T05:38:02.021Z,13.07
2023-01-26T05:40:29.834Z,13.73
2023-01-26T05:42:58.944Z,11.97
2023-01-26T05:45:26.663Z,12.80
2023-01-26T05:47:54.446Z,11.73
2023-01-26T05:50:22.198Z,12.60
2023-01-26T05:52:49.965Z,12.60
2023-01-26T05:55:17.855Z,13.43
2023-01-26T05:57:45.612Z,13.23
2023-01-26T06:00:15.794Z,15.73
2023-01-26T06:02:43.578Z,14.23
2023-01-26T06:05:11.467Z,14.00
2023-01-26T06:07:39.320Z,13.90
2023-01-26T06:10:07.895Z,15.23
2023-01-26T06:12:38.537Z,14.17
2023-01-26T06:15:08.021Z,13.77
2023-01-26T06:17:37.122Z,14.13
2023-01-26T06:20:05.451Z,13.70
2023-01-26T06:22:33.154Z,14.00
2023-01-26T06:25:00.913Z,14.33
2023-01-26T06:27:28.672Z,13.43
2023-01-26T06:29:56.686Z,13.80
2023-01-26T06:32:25.371Z,62.20
2023-01-26T06:34:54.828Z,14.60
2023-01-26T06:37:22.618Z,12.83
2023-01-26T06:39:50.368Z,14.10
2023-01-26T06:42:18.076Z,14.50
2023-01-26T06:44:45.806Z,15.33
2023-01-26T06:47:14.892Z,14.83
2023-01-26T06:49:42.646Z,14.80
2023-01-26T06:52:27.103Z,15.43
2023-01-26T06:54:55.226Z,14.50
2023-01-26T06:57:22.918Z,14.17
2023-01-26T06:59:50.703Z,14.83
2023-01-26T07:02:20.618Z,16.77
2023-01-26T07:04:48.978Z,17.37
2023-01-26T07:07:16.941Z,15.10
2023-01-26T07:09:46.031Z,17.57
2023-01-26T07:12:13.893Z,17.00
2023-01-26T07:14:41.693Z,15.87
2023-01-26T07:17:09.457Z,15.80
2023-01-26T07:19:37.362Z,13.60
2023-01-26T07:22:05.354Z,13.57
2023-01-26T07:24:33.102Z,15.83
2023-01-26T07:27:02.155Z,14.60
2023-01-26T07:29:30.294Z,16.30
2023-01-26T07:31:58.087Z,13.70
2023-01-26T07:34:25.855Z,12.47
2023-01-26T07:36:53.947Z,14.27
2023-01-26T07:39:21.691Z,13.63
2023-01-26T07:41:50.432Z,12.47
2023-01-26T07:44:19.492Z,11.43
2023-01-26T07:46:47.243Z,11.40
2023-01-26T07:49:14.980Z,11.30
2023-01-26T07:51:42.700Z,10.83
2023-01-26T07:54:13.023Z,11.93
2023-01-26T07:56:40.771Z,11.37
2023-01-26T07:59:08.483Z,11.43
2023-01-26T08:01:37.537Z,12.53
2023-01-26T08:04:05.563Z,11.57
2023-01-26T08:06:33.273Z,10.33
2023-01-26T08:09:01.088Z,11.47
2023-01-26T08:11:28.795Z,11.27
2023-01-26T08:13:57.050Z,11.33
2023-01-26T08:16:24.957Z,11.97
2023-01-26T08:18:54.162Z,11.83
2023-01-26T08:21:21.909Z,12.03
2023-01-26T08:23:51.137Z,12.03
2023-01-26T08:26:20.647Z,11.93
2023-01-26T08:28:49.390Z,12.93
2023-01-26T08:31:20.463Z,11.30
2023-01-26T08:33:50.699Z,10.90
2023-01-26T08:36:22.638Z,11.67
2023-01-26T08:38:51.102Z,11.10
2023-01-26T08:41:19.157Z,10.87
2023-01-26T08:43:47.116Z,11.90
2023-01-26T08:46:14.913Z,10.97
2023-01-26T08:48:42.699Z,10.10
2023-01-26T08:51:10.432Z,11.23
2023-01-26T08:53:39.611Z,12.00
2023-01-26T08:56:09.813Z,9.60
2023-01-26T08:58:37.935Z,9.63
2023-01-26T09:01:06.386Z,8.77
2023-01-26T09:03:34.725Z,10.10
2023-01-26T09:06:04.419Z,8.93
2023-01-26T09:08:32.226Z,9.77
2023-01-26T09:11:01.809Z,9.27
2023-01-26T09:13:29.537Z,9.27
2023-01-26T09:15:57.307Z,8.20
2023-01-26T09:18:25.037Z,8.10
2023-01-26T09:20:53.613Z,8.57
2023-01-26T09:23:21.321Z,8.37
2023-01-26T09:25:54.056Z,8.63
2023-01-26T09:28:23.293Z,10.20
2023-01-26T09:30:51.112Z,11.67
2023-01-26T09:33:21.498Z,12.03
2023-01-26T09:35:50.004Z,11.10
2023-01-26T09:38:17.784Z,11.30
2023-01-26T09:40:54.647Z,11.77
2023-01-26T09:43:34.071Z,12.83
2023-01-26T09:46:08.784Z,12.10
2023-01-26T09:48:43.238Z,12.07
2023-01-26T09:51:15.480Z,13.03
2023-01-26T09:53:51.570Z,13.00
2023-01-26T09:56:21.519Z,12.67
2023-01-26T09:58:58.887Z,14.40
2023-01-26T10:01:34.752Z,12.40
2023-01-26T10:04:06.759Z,14.33
2023-01-26T10:06:35.596Z,14.67
2023-01-26T10:09:08.937Z,13.63
2023-01-26T10:11:42.033Z,13.80
2023-01-26T10:14:16.127Z,13.43
2023-01-26T10:16:46.496Z,14.40
2023-01-26T10:19:22.296Z,14.27
2023-01-26T10:21:53.888Z,13.63
2023-01-26T10:24:24.030Z,13.87
2023-01-26T10:26:54.448Z,15.30
2023-01-26T10:29:23.912Z,13.70
2023-01-26T10:31:51.717Z,15.53
2023-01-26T10:34:25.877Z,14.20
2023-01-26T10:37:02.530Z,14.47
2023-01-26T10:39:30.323Z,13.30
2023-01-26T10:42:00.326Z,14.03
2023-01-26T10:44:34.092Z,13.77
2023-01-26T10:47:16.198Z,14.10
2023-01-26T10:49:44.607Z,13.33
2023-01-26T10:52:18.386Z,13.77
2023-01-26T10:54:46.619Z,13.50
2023-01-26T10:57:27.908Z,14.53
2023-01-26T10:59:59.984Z,15.10
2023-01-26T11:02:29.398Z,14.70
2023-01-26T11:05:21.350Z,13.87
2023-01-26T11:07:51.074Z,27.07
2023-01-26T11:10:25.613Z,13.37
2023-01-26T11:13:08.365Z,14.10
2023-01-26T11:15:40.263Z,13.73
2023-01-26T11:18:16.803Z,15.07
2023-01-26T11:20:50.167Z,13.67
2023-01-26T11:23:30.787Z,13.50
2023-01-26T11:26:37.199Z,13.93
2023-01-26T11:29:23.810Z,11.67
2023-01-26T11:32:00.540Z,12.47
2023-01-26T11:34:36.683Z,11.70
2023-01-26T11:37:32.962Z,12.77
2023-01-26T11:40:05.572Z,10.70
2023-01-26T11:42:42.276Z,10.23
2023-01-26T11:45:23.192Z,11.40
2023-01-26T11:48:07.463Z,12.30
2023-01-26T11:50:39.917Z,12.40
2023-01-26T11:53:25.479Z,11.30
2023-01-26T11:56:03.271Z,10.40
2023-01-26T11:58:36.398Z,10.67
2023-01-26T12:01:10.998Z,10.60
2023-01-26T12:03:47.496Z,11.10
2023-01-26T12:06:19.451Z,9.80
2023-01-26T12:08:52.847Z,10.30
2023-01-26T12:11:26.529Z,9.90
2023-01-26T12:14:02.162Z,10.20
2023-01-26T12:16:39.254Z,9.83
2023-01-26T12:19:17.829Z,10.27
2023-01-26T12:21:47.827Z,9.27
2023-01-26T12:24:48.453Z,7.73
2023-01-26T12:27:17.255Z,9.50
2023-01-26T12:29:51.615Z,10.67
2023-01-26T12:32:19.796Z,11.83
2023-01-26T12:34:49.255Z,10.80
2023-01-26T12:37:31.945Z,15.40
2023-01-26T12:40:10.595Z,13.13
2023-01-26T12:42:45.363Z,12.07
2023-01-26T12:45:19.360Z,11.40
2023-01-26T12:47:51.301Z,8.47
2023-01-26T12:50:27.778Z,11.90
2023-01-26T12:53:00.914Z,9.50
2023-01-26T12:55:31.699Z,9.73
2023-01-26T12:58:02.791Z,11.67
2023-01-26T13:00:33.738Z,11.83
2023-01-26T13:03:04.988Z,11.73
2023-01-26T13:05:36.633Z,12.17
2023-01-26T13:08:56.645Z,11.63
2023-01-26T13:11:48.467Z,12.33
2023-01-26T13:14:34.413Z,12.37
2023-01-26T13:17:56.024Z,12.57
2023-01-26T13:20:44.643Z,12.40
2023-01-26T13:23:45.149Z,34.97
2023-01-26T13:26:22.186Z,11.93
2023-01-26T13:28:50.891Z,12.57
2023-01-26T13:31:33.797Z,11.97
2023-01-26T13:34:07.066Z,11.23
2023-01-26T13:36:39.958Z,10.93
2023-01-26T13:39:15.062Z,10.23
2023-01-26T13:41:47.452Z,9.47
2023-01-26T13:44:18.566Z,10.20
2023-01-26T13:46:51.663Z,10.07
2023-01-26T13:49:26.889Z,9.67
2023-01-26T13:51:55.992Z,8.70
2023-01-26T13:54:26.098Z,8.53
2023-01-26T13:57:05.313Z,8.93
2023-01-26T13:59:34.130Z,9.27
2023-01-26T14:02:02.042Z,9.10
2023-01-26T14:04:31.839Z,9.60
2023-01-26T14:07:05.523Z,10.60
2023-01-26T14:09:36.298Z,8.83
2023-01-26T14:12:06.233Z,10.70
2023-01-26T14:14:36.200Z,10.33
2023-01-26T14:17:08.371Z,10.60
2023-01-26T14:19:41.525Z,10.77
2023-01-26T14:22:14.945Z,11.57
2023-01-26T14:24:43.168Z,10.97
2023-01-26T14:27:29.190Z,20.30
2023-01-26T14:29:58.084Z,34.67
2023-01-26T14:32:29.394Z,14.27
2023-01-26T14:34:59.164Z,14.90
2023-01-26T14:37:29.120Z,18.30
2023-01-26T14:40:20.386Z,13.83
2023-01-26T14:42:50.791Z,14.30
2023-01-26T14:45:19.338Z,16.30
2023-01-26T14:47:47.198Z,12.13
2023-01-26T14:50:23.269Z,10.80
2023-01-26T14:52:52.407Z,11.27
2023-01-26T14:55:26.390Z,10.47
2023-01-26T14:57:54.352Z,9.93
2023-01-26T15:00:26.689Z,10.10
2023-01-26T15:02:56.691Z,11.83
2023-01-26T15:05:32.177Z,9.63
2023-01-26T15:08:02.318Z,10.13
2023-01-26T15:10:36.704Z,9.93
2023-01-26T15:13:08.255Z,10.03
2023-01-26T15:15:38.909Z,9.57
2023-01-26T15:18:18.827Z,9.03
2023-01-26T15:21:00.141Z,9.73
2023-01-26T15:23:31.895Z,9.57
2023-01-26T15:26:07.595Z,8.47
2023-01-26T15:28:36.604Z,9.10
2023-01-26T15:31:04.964Z,8.90
2023-01-26T15:33:50.682Z,9.73
2023-01-26T15:36:35.595Z,9.13
2023-01-26T15:39:13.395Z,9.60
2023-01-26T15:41:41.863Z,11.60
2023-01-26T15:44:16.526Z,12.03
2023-01-26T15:46:44.990Z,10.73
2023-01-26T15:49:13.172Z,10.83
2023-01-26T15:51:41.207Z,11.30
2023-01-26T15:54:12.535Z,11.77
2023-01-26T15:56:40.307Z,11.17
2023-01-26T15:59:08.205Z,10.60
2023-01-26T16:01:35.983Z,9.40
2023-01-26T16:04:03.747Z,9.37
2023-01-26T16:06:34.612Z,9.23
2023-01-26T16:09:02.348Z,10.67
2023-01-26T16:11:35.166Z,8.80
2023-01-26T16:14:04.307Z,14.27
2023-01-26T16:16:32.927Z,11.50
2023-01-26T16:19:01.020Z,13.17
2023-01-26T16:21:33.206Z,17.43
2023-01-26T16:24:02.087Z,12.03
2023-01-26T16:26:32.069Z,15.33
2023-01-26T16:29:00.034Z,11.33
2023-01-26T16:31:30.824Z,10.37
2023-01-26T16:33:59.884Z,11.60
2023-01-26T16:36:28.118Z,12.37
2023-01-26T16:38:56.214Z,14.00
2023-01-26T16:41:26.645Z,15.93
2023-01-26T16:43:57.168Z,11.87
2023-01-26T16:46:25.173Z,11.53
2023-01-26T16:48:53.627Z,18.63
2023-01-26T16:51:25.019Z,19.83
2023-01-26T16:53:54.596Z,21.80
2023-01-26T16:56:23.402Z,25.47
2023-01-26T16:58:51.345Z,12.87
2023-01-26T17:01:23.145Z,12.33
2023-01-26T17:03:51.290Z,15.33
2023-01-26T17:06:20.339Z,12.40
2023-01-26T17:08:48.289Z,12.40
2023-01-26T17:11:18.553Z,12.53
2023-01-26T17:13:47.573Z,13.70
2023-01-26T17:16:17.473Z,15.68
2023-01-26T17:18:47.267Z,17.17
2023-01-26T17:21:16.383Z,15.00
2023-01-26T17:23:45.138Z,14.73
2023-01-26T17:26:15.361Z,16.10
2023-01-26T17:28:43.334Z,14.57
2023-01-26T17:31:12.221Z,13.37
2023-01-26T17:33:40.684Z,13.60
2023-01-26T17:36:10.446Z,14.83
2023-01-26T17:38:38.517Z,14.50
2023-01-26T17:41:06.981Z,15.17
2023-01-26T17:43:35.034Z,14.57
2023-01-26T17:46:04.815Z,15.23
2023-01-26T17:48:32.714Z,15.40
2023-01-26T17:51:00.482Z,14.47
2023-01-26T17:53:29.709Z,16.13
2023-01-26T17:55:57.459Z,15.17
2023-01-26T17:58:25.263Z,15.37
2023-01-26T18:00:53.469Z,15.70
2023-01-26T18:03:26.184Z,14.63
2023-01-26T18:05:55.088Z,14.80
2023-01-26T18:08:23.995Z,14.30
2023-01-26T18:10:58.832Z,14.37
2023-01-26T18:13:26.687Z,14.50
2023-01-26T18:15:55.188Z,14.73
2023-01-26T18:18:23.459Z,14.17
2023-01-26T18:20:51.294Z,14.37
2023-01-26T18:23:20.741Z,18.13
2023-01-26T18:25:48.903Z,14.40
2023-01-26T18:28:18.239Z,14.73
2023-01-26T18:30:46.206Z,15.97
2023-01-26T18:33:14.063Z,15.93
2023-01-26T18:35:41.923Z,16.97
2023-01-26T18:38:09.680Z,15.83
2023-01-26T18:40:40.431Z,17.00
2023-01-26T18:43:09.386Z,17.40
2023-01-26T18:45:42.460Z,16.80
2023-01-26T18:48:10.346Z,20.27
2023-01-26T18:50:39.243Z,16.93
2023-01-26T18:53:07.300Z,21.00
2023-01-26T18:55:35.093Z,19.93
2023-01-26T18:58:02.851Z,23.13
2023-01-26T19:00:30.621Z,28.80
2023-01-26T19:02:59.736Z,17.13
2023-01-26T19:05:27.606Z,22.13
2023-01-26T19:07:55.406Z,18.33
2023-01-26T19:10:23.169Z,17.10
2023-01-26T19:12:51.341Z,17.43
2023-01-26T19:15:19.228Z,18.17
2023-01-26T19:17:46.978Z,18.70
2023-01-26T19:20:16.244Z,18.40
2023-01-26T19:22:44.162Z,18.17
2023-01-26T19:25:12.252Z,17.77
2023-01-26T19:27:40.363Z,18.13
2023-01-26T19:30:09.458Z,16.70
2023-01-26T19:32:37.515Z,18.40
2023-01-26T19:35:05.674Z,16.80
2023-01-26T19:37:34.768Z,17.63
2023-01-26T19:40:02.584Z,17.10
2023-01-26T19:42:30.351Z,18.67
2023-01-26T19:44:58.076Z,17.40
2023-01-26T19:47:25.844Z,17.73
2023-01-26T19:49:53.609Z,17.90
2023-01-26T19:52:21.387Z,17.57
2023-01-26T19:54:50.478Z,19.33
2023-01-26T19:57:18.312Z,18.50
2023-01-26T19:59:46.157Z,17.30
2023-01-26T20:02:13.924Z,17.50
2023-01-26T20:04:41.643Z,17.23
2023-01-26T20:07:09.408Z,19.20
2023-01-26T20:09:37.674Z,18.77
2023-01-26T20:12:09.138Z,17.60
2023-01-26T20:14:37.121Z,19.33
2023-01-26T20:17:04.927Z,20.23
2023-01-26T20:19:34.832Z,18.63
2023-01-26T20:22:03.648Z,20.73
2023-01-26T20:24:31.509Z,21.13
2023-01-26T20:26:59.428Z,22.10
2023-01-26T20:29:28.639Z,23.37
2023-01-26T20:31:56.473Z,21.00
2023-01-26T20:34:25.480Z,22.27
2023-01-26T20:36:57.689Z,20.10
2023-01-26T20:39:25.498Z,21.30
2023-01-26T20:41:54.224Z,20.60
2023-01-26T20:44:22.239Z,22.17
2023-01-26T20:46:51.271Z,21.50
2023-01-26T20:49:19.705Z,20.97
2023-01-26T20:51:47.840Z,20.13
2023-01-26T20:54:17.203Z,20.33
2023-01-26T20:56:46.553Z,21.33
2023-01-26T20:59:14.324Z,21.43
2023-01-26T21:01:42.094Z,22.40
2023-01-26T21:04:11.503Z,23.43
2023-01-26T21:06:41.582Z,23.43
2023-01-26T21:09:12.661Z,21.27
2023-01-26T21:11:40.748Z,22.53
2023-01-26T21:14:12.000Z,24.17
2023-01-26T21:16:39.821Z,23.20
2023-01-26T21:19:07.673Z,23.17
2023-01-26T21:21:36.771Z,23.77
2023-01-26T21:24:04.919Z,22.80
2023-01-26T21:26:33.093Z,22.73
2023-01-26T21:29:01.555Z,21.20
2023-01-26T21:31:30.851Z,24.07
2023-01-26T21:33:59.060Z,22.67
2023-01-26T21:36:28.627Z,23.40
2023-01-26T21:38:59.104Z,23.57
2023-01-26T21:41:46.180Z,21.70
2023-01-26T21:44:16.935Z,21.27
2023-01-26T21:46:46.371Z,22.00
2023-01-26T21:49:15.030Z,22.17
2023-01-26T21:52:00.546Z,22.80
2023-01-26T21:54:30.235Z,20.97
2023-01-26T21:56:59.041Z,22.53
2023-01-26T21:59:26.300Z,21.33
2023-01-26T22:01:55.320Z,21.83
2023-01-26T22:04:25.137Z,21.07
2023-01-26T22:06:53.021Z,21.43
2023-01-26T22:09:21.285Z,20.60
2023-01-26T22:11:51.521Z,22.33
2023-01-26T22:14:21.053Z,21.10
2023-01-26T22:16:48.921Z,22.93
2023-01-26T22:19:16.807Z,22.17
2023-01-26T22:21:44.775Z,22.27
2023-01-26T22:24:15.299Z,21.77
2023-01-26T22:26:43.223Z,20.47
2023-01-26T22:29:13.325Z,20.70
2023-01-26T22:31:41.706Z,21.83
2023-01-26T22:34:11.557Z,21.43
2023-01-26T22:36:40.059Z,20.47
2023-01-26T22:39:07.907Z,20.87
2023-01-26T22:41:35.949Z,20.43
2023-01-26T22:44:03.719Z,21.73
2023-01-26T22:46:33.158Z,22.90
2023-01-26T22:49:01.102Z,21.93
2023-01-26T22:51:30.311Z,20.53
2023-01-26T22:53:59.403Z,22.50
2023-01-26T22:56:28.149Z,21.40
2023-01-26T22:58:59.852Z,21.90
2023-01-26T23:01:29.134Z,21.23
2023-01-26T23:03:59.154Z,20.93
2023-01-26T23:06:27.483Z,21.53
2023-01-26T23:08:55.612Z,21.30
2023-01-26T23:11:25.329Z,21.03
2023-01-26T23:13:54.598Z,21.10
2023-01-26T23:16:23.952Z,21.47
2023-01-26T23:18:52.009Z,20.47
2023-01-26T23:21:21.242Z,19.77
2023-01-26T23:23:49.139Z,20.23
2023-01-26T23:26:17.514Z,18.73
2023-01-26T23:28:45.868Z,18.73
2023-01-26T23:31:15.578Z,21.17
2023-01-26T23:33:43.453Z,20.13
2023-01-26T23:36:13.045Z,19.07
2023-01-26T23:38:42.541Z,21.13
2023-01-26T23:41:10.335Z,20.23
2023-01-26T23:43:38.137Z,19.63
2023-01-26T23:46:06.699Z,20.93
2023-01-26T23:48:34.458Z,21.17
2023-01-26T23:51:03.956Z,21.17
2023-01-26T23:53:32.063Z,21.60
2023-01-26T23:56:04.959Z,19.97
2023-01-26T23:58:32.677Z,20.70
